首页
METAR-TAF:

METAR-TAF

机场 :

Kulusuk, 格陵兰

纬度: 65-35N, 经度: 037-09W, 海拔: 35米

当前天气观测

该预报发布于32分钟前的23:50 UTC
风速12节,风向
温度 7°C
湿度 93%
气压 1009 hPa
能见度10公里或以上
小雨,

METAR: BGKK 152350Z AUTO 09012KT 9999NDV -RA BKN008/// 07/06 Q1009

时间: 22:22 (00:22 UTC)

预报

该预报发布于7小时和15分钟前的17:07 UTC
预报有效从15日的 18点(UTC)到 15日的 23点(UTC)
风速10节,风向
能見度: 8000
多云层高于1500英尺
小雨
短暂存在
从 15日的 18点(UTC)到 15日的 23点(UTC)
风速15节,风向东转东北,有时为25节阵风
能見度: 4000
多云层高于800英尺
小毛毛雨, 轻雾,

TAF: BGKK 151707Z 1518/1523 10010KT 8000 -RA BKN015 TEMPO 1518/1523 07015G25KT 4000 -DZ BR BKN008

超过4000个机场的气象观测和天气预报(METAR&TAF报告)。

可查询的气象台以黄色和红色小点在地图上表示。

将鼠标移到小点上方,可查看气象台名称。

然后点击查看天气观测和预报。

如需切换地图:点击带黑十字的绿色按钮放大地图;点击带横线的绿色按钮缩小地图;或者点击绿色箭头查看邻近地区的地图。


METAR-TAF: